This is the latest recevied weather packets stored in our database for station/object VE2BTZ. If no packets are shown the sender has not sent any weather packets the latest 10 day(s).
| Time | Temp. | Humidity | Pressure | Rain* | Wind** | Luminosity | Snow |
|---|---|---|---|---|---|---|---|
| 1778164504 | 9.44° C | 62% | 1007.2 hPa | 0 mm | - | - | - |
| 1778162104 | 8.33° C | 65% | 1007.4 hPa | 0 mm | - | - | - |
| 1778161803 | 8.33° C | 64% | 1007.4 hPa | 0 mm | - | - | - |
| 1778158503 | 7.78° C | 69% | 1007.5 hPa | 0 mm | - | - | - |
| 1778157903 | 7.22° C | 68% | 1007.4 hPa | 0 mm | - | - | - |
| 1778157303 | 7.22° C | 69% | 1007.5 hPa | 0 mm | - | - | - |
| 1778153703 | 6.11° C | 81% | 1007.3 hPa | 0 mm | - | - | - |
| 1778151304 | 6.67° C | 86% | 1007 hPa | 0 mm | - | - | - |
| 1778148903 | 7.22° C | 87% | 1006.6 hPa | 0 mm | - | - | - |
| 1778147104 | 7.22° C | 88% | 1006.6 hPa | 0 mm | - | - | - |
| 1778144103 | 7.22° C | 89% | 1006.5 hPa | 0 mm | - | - | - |
| 1778143503 | 7.22° C | 89% | 1006.4 hPa | 0 mm | - | - | - |
| 1778142603 | 7.22° C | 89% | 1006.5 hPa | 0 mm | - | - | - |
| 1778140503 | 7.22° C | 89% | 1006.7 hPa | 0 mm | - | - | - |
| 1778140204 | 7.22° C | 89% | 1006.8 hPa | 0 mm | - | - | - |
| 1778139603 | 7.22° C | 89% | 1007 hPa | 0 mm | - | - | - |
| 1778139003 | 7.22° C | 89% | 1006.9 hPa | 0 mm | - | - | - |
| 1778136904 | 7.22° C | 89% | 1006.7 hPa | 0 mm | - | - | - |
| 1778135103 | 6.67° C | 90% | 1006.8 hPa | 0 mm | - | - | - |
| 1778133004 | 6.67° C | 90% | 1007.2 hPa | 0 mm | - | - | - |
| 1778131503 | 6.67° C | 90% | 1007.4 hPa | 0 mm | - | - | - |
| 1778130303 | 6.67° C | 90% | 1007.4 hPa | 0 mm | - | - | - |
| 1778128503 | 6.67° C | 90% | 1008 hPa | 0 mm | - | - | - |
| 1778128203 | 6.67° C | 90% | 1008.1 hPa | 0 mm | - | - | - |
| 1778126104 | 6.67° C | 90% | 1008.3 hPa | 0 mm | - | - | - |
* Rain latest hour (hover to see other rain measurements)
** Current wind speed in m/s (hover to see current wind gust speed)